Latest Weather Observations for Butlers Gorge

IDT60801

Issued at 11:32 pm EDT Monday 16 January 2017 (issued every 30 minutes, with the page automatically refreshed every 10 minutes)

About weather observations | Map of weather stations | Latest weather observations for TAS | Other Formats
Station Details ID: 096003 Name: BUTLERS GORGE Lat: -42.28 Lon: 146.28 Height: 667.0 m
Data from the previous 72 hours. | See also: Recent months at Butlers Gorge
Date/Time
EDT
Temp
°C
App
Temp
°C
Dew
Point
°C
Rel
Hum
%
Delta-T
°C
Wind Press
QNH
hPa
Press
MSL
hPa
Rain since
9am
mm
Dir  Spd
km/h
Gust
km/h
Spd
kts
Gust
kts
16/11:30pm 8.9 6.3 6.3 84 1.2 WSW 9 13 5 7 - - 0.0
16/11:00pm 10.0 8.8 6.3 78 1.8 W 2 6 1 3 - - 0.0
16/10:30pm 10.3 8.1 6.3 76 1.9 WSW 7 13 4 7 - - 0.0
16/10:00pm 11.6 9.7 6.5 71 2.5 WSW 6 9 3 5 - - 0.0
16/09:30pm 13.5 10.9 6.1 61 3.7 WSW 9 15 5 8 - - 0.0
16/09:00pm 13.7 11.7 6.3 61 3.7 SW 6 9 3 5 - - 0.0
16/08:30pm 15.8 13.4 5.1 49 5.3 WSW 7 15 4 8 - - 0.0
16/08:00pm 17.2 15.1 5.8 47 5.7 W 6 11 3 6 - - 0.0
16/07:30pm 17.9 14.8 5.5 44 6.2 WNW 11 19 6 10 - - 0.0
16/07:00pm 18.2 14.8 5.8 44 6.3 WNW 13 24 7 13 - - 0.0
16/06:30pm 18.7 14.5 5.9 43 6.5 WNW 17 28 9 15 - - 0.0
16/06:00pm 19.3 16.3 6.1 42 6.8 WSW 11 24 6 13 - - 0.0
16/05:30pm 19.5 17.0 6.6 43 6.7 W 9 22 5 12 - - 0.0
16/05:00pm 19.1 16.6 8.4 50 5.7 WSW 11 20 6 11 - - 0.0
16/04:30pm 18.9 16.4 8.3 50 5.7 W 11 20 6 11 - - 0.0
16/04:00pm 18.8 16.0 8.5 51 5.5 WNW 13 22 7 12 - - 0.0
16/03:30pm 18.3 15.1 8.3 52 5.3 WNW 15 26 8 14 - - 0.0
16/03:00pm 18.4 15.9 8.1 51 5.5 W 11 20 6 11 - - 0.0
16/02:30pm 17.7 14.2 8.8 56 4.8 WSW 17 26 9 14 - - 0.0
16/02:00pm 17.3 14.7 7.9 54 4.9 WSW 11 24 6 13 - - 0.0
16/01:30pm 16.9 13.7 6.7 51 5.2 W 13 24 7 13 - - 0.0
16/01:00pm 15.8 11.8 6.8 55 4.6 W 17 30 9 16 - - 0.0
16/12:30pm 14.9 11.4 7.0 59 4.0 W 15 28 8 15 - - 0.0
16/12:00pm 14.5 10.8 8.0 65 3.4 W 17 30 9 16 - - 0.0
16/11:30am 14.0 10.7 8.0 67 3.1 WSW 15 35 8 19 - - 0.0
16/11:00am 12.6 9.0 6.9 68 2.8 W 15 32 8 17 - - 0.0
16/10:30am 12.3 8.8 7.4 72 2.5 WNW 15 28 8 15 - - 0.0
16/10:00am 11.1 7.8 6.3 72 2.3 NW 13 22 7 12 - - 0.0
16/09:30am 10.0 5.9 6.0 76 1.9 NNW 17 30 9 16 - - 0.0
16/09:00am 9.8 6.1 6.5 80 1.6 N 15 22 8 12 - - 0.6
16/08:30am 9.5 7.0 6.6 82 1.4 NW 9 17 5 9 - - 0.6
16/08:00am 9.1 6.6 6.4 83 1.3 WNW 9 17 5 9 - - 0.6
16/07:30am 8.8 5.5 6.3 84 1.2 WNW 13 22 7 12 - - 0.6
16/07:00am 8.6 5.3 6.4 86 1.1 W 13 26 7 14 - - 0.6
16/06:30am 8.4 5.1 6.4 87 1.0 WSW 13 22 7 12 - - 0.6
16/06:00am 8.4 5.5 6.4 87 1.0 WSW 11 19 6 10 - - 0.6
16/05:30am 8.6 5.3 6.4 86 1.1 W 13 22 7 12 - - 0.6
16/05:00am 8.3 4.6 6.1 86 1.0 WSW 15 24 8 13 - - 0.6
16/04:30am 8.4 5.1 6.4 87 1.0 WSW 13 22 7 12 - - 0.4
16/04:00am 8.5 4.8 6.3 86 1.1 WSW 15 24 8 13 - - 0.4
16/03:30am 8.3 4.2 6.1 86 1.0 W 17 26 9 14 - - 0.4
16/03:00am 8.0 5.1 6.5 90 0.7 W 11 19 6 10 - - 0.4
16/02:30am 8.1 5.1 6.2 88 0.9 WNW 11 24 6 13 - - 0.4
16/02:00am 8.4 5.4 5.9 84 1.2 WNW 11 20 6 11 - - 0.2
16/01:30am 8.1 4.3 5.9 86 1.0 WSW 15 24 8 13 - - 0.2
16/01:00am 8.5 4.8 6.3 86 1.1 WSW 15 28 8 15 - - 0.2
16/12:30am 8.6 4.9 6.4 86 1.1 W 15 32 8 17 - - 0.2
16/12:00am 8.6 5.7 6.4 86 1.1 W 11 19 6 10 - - 0.2
 
Date/Time
EDT
Temp
°C
App
Temp
°C
Dew
Point
°C
Rel
Hum
%
Delta-T
°C
Wind Press
QNH
hPa
Press
MSL
hPa
Rain since
9am
mm
Dir  Spd
km/h
Gust
km/h
Spd
kts
Gust
kts
15/11:30pm 8.8 5.8 6.1 83 1.3 WSW 11 17 6 9 - - 0.2
15/11:00pm 8.6 5.7 6.6 87 1.0 WSW 11 24 6 13 - - 0.2
15/10:30pm 8.7 5.8 6.5 86 1.1 W 11 22 6 12 - - 0.2
15/10:00pm 8.7 5.7 6.2 84 1.2 W 11 24 6 13 - - 0.2
15/09:30pm 9.0 6.0 6.1 82 1.4 W 11 20 6 11 - - 0.2
15/09:00pm 8.8 6.3 6.4 85 1.2 WSW 9 17 5 9 - - 0.2
15/08:30pm 8.9 6.5 6.9 87 1.0 W 9 24 5 13 - - 0.0
15/08:00pm 9.2 6.0 6.8 85 1.2 WSW 13 26 7 14 - - 0.0
15/07:30pm 9.6 6.7 6.5 81 1.5 WSW 11 26 6 14 - - 0.0
15/07:00pm 9.6 6.3 6.3 80 1.6 WSW 13 26 7 14 - - 0.0
15/06:30pm 9.9 7.0 6.6 80 1.6 WSW 11 26 6 14 - - 0.0
15/06:00pm 10.2 7.4 6.9 80 1.6 W 11 20 6 11 - - 0.0
15/05:30pm 10.2 6.2 6.7 79 1.7 WNW 17 26 9 14 - - 0.0
15/05:00pm 11.4 8.0 5.9 69 2.7 W 13 28 7 15 - - 0.0
15/04:30pm 11.5 8.0 5.6 67 2.8 W 13 26 7 14 - - 0.0
15/04:00pm 12.3 8.8 5.5 63 3.3 W 13 20 7 11 - - 0.0
15/03:30pm 12.5 8.5 5.0 60 3.6 WNW 15 28 8 15 - - 0.0
15/03:00pm 12.0 8.6 5.9 66 3.0 W 13 20 7 11 - - 0.0
15/02:30pm 10.9 7.1 5.7 70 2.5 WNW 15 26 8 14 - - 0.0
15/02:00pm 12.6 8.7 6.9 68 2.8 W 17 35 9 19 - - 0.0
15/01:30pm 11.4 6.8 5.5 67 2.8 WNW 19 32 10 17 - - 0.0
15/01:00pm 13.0 9.6 7.5 69 2.8 WSW 15 35 8 19 - - 0.0
15/12:30pm 10.7 7.8 4.8 67 2.8 SW 9 20 5 11 - - 0.0
15/12:00pm 9.6 6.5 5.6 76 1.9 W 11 33 6 18 - - 0.0
15/11:30am 9.7 6.5 5.1 73 2.2 W 11 22 6 12 - - 0.0
15/11:00am 9.4 5.7 4.6 72 2.2 W 13 28 7 15 - - 0.0
15/10:30am 9.1 5.4 4.5 73 2.1 NW 13 24 7 13 - - 0.0
15/10:00am 8.7 4.5 3.9 72 2.2 WNW 15 28 8 15 - - 0.0
15/09:30am 8.2 4.5 4.6 78 1.7 WSW 13 32 7 17 - - 0.0
15/09:00am 8.1 3.0 4.1 76 1.8 WSW 20 39 11 21 - - 1.2
15/08:30am 8.5 3.0 3.8 72 2.1 WSW 22 43 12 23 - - 1.2
15/08:05am 7.7 0.9 3.2 73 2.0 WSW 28 46 15 25 - - 1.2
15/08:00am 7.6 1.6 3.1 73 2.0 WSW 24 39 13 21 - - 1.2
15/07:30am 7.4 1.8 3.6 77 1.7 WSW 22 39 12 21 - - 1.2
15/07:00am 6.9 1.3 3.5 79 1.5 WSW 22 37 12 20 - - 1.2
15/06:30am 6.3 1.8 4.0 85 1.0 WSW 17 26 9 14 - - 1.2
15/06:00am 6.6 2.3 3.2 79 1.5 WSW 15 24 8 13 - - 1.2
15/05:30am 7.0 2.5 2.1 71 2.1 WSW 15 28 8 15 - - 1.2
15/05:00am 6.6 1.7 1.9 72 2.0 WSW 17 28 9 15 - - 1.2
15/04:30am 6.5 2.2 3.1 79 1.5 WSW 15 28 8 15 - - 1.2
15/04:00am 6.6 2.7 3.6 81 1.3 WSW 13 26 7 14 - - 1.2
15/03:30am 6.9 2.1 2.8 75 1.8 WSW 17 26 9 14 - - 1.2
15/03:00am 6.9 1.4 2.0 71 2.1 WSW 20 33 11 18 - - 1.2
15/02:30am 6.7 0.4 1.4 69 2.2 WSW 24 39 13 21 - - 1.2
15/02:00am 6.6 0.7 1.9 72 2.0 WSW 22 32 12 17 - - 1.2
15/01:30am 6.7 1.5 2.6 75 1.8 WSW 19 33 10 18 - - 1.0
15/01:00am 6.6 1.8 2.5 75 1.8 WSW 17 32 9 17 - - 1.0
15/12:30am 6.8 1.9 1.9 71 2.1 WSW 17 26 9 14 - - 1.0
15/12:00am 6.8 2.6 1.9 71 2.1 WSW 13 26 7 14 - - 1.0
 
Date/Time
EDT
Temp
°C
App
Temp
°C
Dew
Point
°C
Rel
Hum
%
Delta-T
°C
Wind Press
QNH
hPa
Press
MSL
hPa
Rain since
9am
mm
Dir  Spd
km/h
Gust
km/h
Spd
kts
Gust
kts
14/11:30pm 6.9 3.7 3.0 76 1.7 WSW 9 19 5 10 - - 1.0
14/11:00pm 7.1 3.8 2.2 71 2.1 WNW 9 17 5 9 - - 1.0
14/10:30pm 7.1 3.7 1.8 69 2.3 W 9 26 5 14 - - 1.0
14/10:00pm 7.0 3.0 3.1 76 1.7 W 13 35 7 19 - - 1.0
14/09:30pm 7.1 3.3 3.7 79 1.5 W 13 22 7 12 - - 1.0
14/09:00pm 7.2 2.7 1.9 69 2.3 W 15 26 8 14 - - 1.0
14/08:30pm 7.0 1.7 2.9 75 1.8 WSW 20 37 11 20 - - 1.0
14/08:00pm 7.4 2.2 2.5 71 2.1 WSW 19 43 10 23 - - 1.0
14/07:30pm 7.4 3.1 3.5 76 1.7 WSW 15 30 8 16 - - 1.0
14/07:00pm 8.3 3.1 2.3 66 2.6 W 19 35 10 19 - - 1.0
14/06:30pm 8.1 3.3 2.8 69 2.3 WSW 17 44 9 24 - - 1.0
14/06:00pm 8.2 4.3 3.5 72 2.1 W 13 33 7 18 - - 1.0
14/05:30pm 8.2 3.6 3.9 74 1.9 W 17 39 9 21 - - 1.0
14/05:00pm 8.8 4.2 3.6 70 2.3 W 17 37 9 20 - - 1.0
14/04:30pm 9.3 5.2 4.5 72 2.2 WSW 15 35 8 19 - - 1.0
14/04:00pm 8.0 3.6 4.6 79 1.6 SW 17 35 9 19 - - 1.0
14/03:30pm 9.2 6.3 6.5 83 1.3 W 11 26 6 14 - - 1.0
14/03:00pm 9.5 5.7 5.9 78 1.7 W 15 30 8 16 - - 0.8
14/02:30pm 9.8 6.1 6.2 78 1.7 WSW 15 37 8 20 - - 0.8
14/02:00pm 10.1 6.6 7.0 81 1.5 W 15 35 8 19 - - 0.6
14/01:30pm 10.3 5.8 6.8 79 1.7 W 20 41 11 22 - - 0.6
14/01:00pm 10.5 7.0 7.0 79 1.7 WSW 15 48 8 26 - - 0.4
14/12:30pm 10.8 7.5 6.2 73 2.2 WNW 13 33 7 18 - - 0.4
14/12:00pm 10.3 7.1 6.8 79 1.7 W 13 32 7 17 - - 0.4
14/11:30am 10.4 7.2 6.7 78 1.8 NW 13 26 7 14 - - 0.4
14/11:00am 10.6 6.7 7.3 80 1.6 WNW 17 35 9 19 - - 0.4
14/10:30am 10.3 7.4 6.6 78 1.8 WSW 11 26 6 14 - - 0.4
14/10:00am 10.6 7.6 7.7 82 1.5 WSW 13 28 7 15 - - 0.0
14/09:30am 10.8 8.3 8.2 84 1.3 W 11 32 6 17 - - 0.0
14/09:00am 10.3 6.8 7.4 82 1.4 W 15 30 8 16 - - 25.2
14/08:30am 9.9 6.5 7.5 85 1.2 W 15 28 8 15 - - 25.0
14/08:00am 9.6 5.7 7.0 84 1.3 W 17 41 9 22 - - 24.0
14/07:30am 9.6 5.0 6.7 82 1.4 W 20 46 11 25 - - 23.6
14/07:00am 9.2 3.8 6.5 83 1.3 W 24 57 13 31 - - 23.6
14/06:55am 9.2 4.7 6.3 82 1.4 WSW 19 57 10 31 - - 23.6
14/06:30am 9.0 5.8 6.8 86 1.1 W 13 32 7 17 - - 22.0
14/06:00am 9.1 4.7 6.5 84 1.3 WNW 19 44 10 24 - - 20.0
14/05:46am 9.0 4.0 6.4 84 1.2 WNW 22 48 12 26 - - 19.8
14/05:45am 9.0 4.0 6.3 83 1.3 WNW 22 48 12 26 - - 19.6
14/05:30am 9.0 4.4 6.3 83 1.3 W 20 39 11 21 - - 18.4
14/05:00am 8.8 2.8 5.5 80 1.6 WNW 26 46 14 25 - - 17.6
14/04:53am 8.9 2.6 5.5 79 1.6 WNW 28 54 15 29 - - 17.6
14/04:30am 8.8 3.6 5.4 79 1.6 W 22 57 12 31 - - 17.4
14/04:00am 8.8 2.5 5.5 80 1.6 WNW 28 63 15 34 - - 17.0
14/03:52am 8.6 2.3 5.7 82 1.4 WNW 28 63 15 34 - - 17.0
14/03:30am 9.2 4.4 5.4 77 1.8 W 20 41 11 22 - - 16.0
14/03:00am 9.2 4.4 4.6 73 2.1 WNW 19 37 10 20 - - 15.8
14/02:30am 9.1 2.7 5.3 77 1.8 WNW 28 57 15 31 - - 15.8
14/02:08am 9.1 2.7 5.3 77 1.8 WNW 28 70 15 38 - - 15.8
14/02:00am 9.1 4.0 5.8 80 1.6 WNW 22 41 12 22 - - 15.2
14/01:30am 9.2 3.5 5.0 75 2.0 WNW 24 56 13 30 - - 14.8
14/01:18am 9.0 2.6 5.4 78 1.7 WNW 28 57 15 31 - - 14.8
14/01:00am 8.6 2.7 5.7 82 1.4 WNW 26 54 14 29 - - 14.6
14/12:39am 10.1 3.7 5.1 71 2.4 WNW 28 54 15 29 - - 13.0
14/12:30am 10.1 4.7 4.7 69 2.5 WNW 22 50 12 27 - - 13.0
14/12:00am 9.4 4.6 5.6 77 1.8 WNW 20 39 11 21 - - 13.0

Other Formats:

Comma delimited format used in spreadsheet applications
http://www.bom.gov.au/fwo/IDT60801/IDT60801.94959.axf

JavaScript Object Notation format (JSON) in row-major order
http://www.bom.gov.au/fwo/IDT60801/IDT60801.94959.json